createdAt,value
2022-08-07T00:00:42.370Z,61.16
2022-08-07T00:03:10.445Z,61.22
2022-08-07T00:05:39.278Z,61.58
2022-08-07T00:08:10.246Z,62.04
2022-08-07T00:10:48.016Z,62.32
2022-08-07T00:13:23.823Z,62.08
2022-08-07T00:15:54.955Z,61.76
2022-08-07T00:18:27.057Z,61.72
2022-08-07T00:21:08.307Z,61.52
2022-08-07T00:23:51.146Z,61.86
2022-08-07T00:26:49.504Z,62.35
2022-08-07T00:29:06.525Z,62.71
2022-08-07T00:31:38.410Z,62.75
2022-08-07T00:34:09.935Z,62.26
2022-08-07T00:36:42.796Z,62.50
2022-08-07T00:39:16.920Z,62.63
2022-08-07T00:42:02.147Z,62.13
2022-08-07T00:44:38.395Z,62.00
2022-08-07T00:48:05.374Z,62.03
2022-08-07T00:50:19.565Z,62.47
2022-08-07T00:52:47.197Z,62.53
2022-08-07T00:55:17.447Z,62.87
2022-08-07T00:57:56.007Z,63.33
2022-08-07T01:00:25.357Z,63.58
2022-08-07T01:02:53.350Z,63.29
2022-08-07T01:05:24.681Z,63.15
2022-08-07T01:07:52.701Z,63.02
2022-08-07T01:10:23.037Z,62.75
2022-08-07T01:12:54.650Z,62.72
2022-08-07T01:16:00.657Z,62.72
2022-08-07T01:18:17.555Z,62.75
2022-08-07T01:20:58.521Z,63.28
2022-08-07T01:23:35.436Z,63.73
2022-08-07T01:26:12.066Z,63.87
2022-08-07T01:28:48.334Z,64.39
2022-08-07T01:31:27.877Z,64.63
2022-08-07T01:34:11.699Z,64.29
2022-08-07T01:36:44.223Z,64.21
2022-08-07T01:39:22.991Z,64.13
2022-08-07T01:42:37.146Z,64.13
2022-08-07T01:44:49.611Z,64.67
2022-08-07T01:48:20.585Z,64.71
2022-08-07T01:50:06.718Z,64.79
2022-08-07T01:52:49.413Z,65.37
2022-08-07T01:55:39.305Z,66.02
2022-08-07T01:58:29.451Z,65.96
2022-08-07T02:01:09.985Z,65.78
2022-08-07T02:04:01.142Z,66.05
2022-08-07T02:06:35.521Z,66.19
2022-08-07T02:09:11.642Z,66.16
2022-08-07T02:12:17.842Z,66.37
2022-08-07T02:14:57.402Z,66.43
2022-08-07T02:17:34.477Z,66.35
2022-08-07T02:20:10.080Z,66.94
2022-08-07T02:22:46.666Z,67.13
2022-08-07T02:26:10.906Z,67.23
2022-08-07T02:28:14.526Z,67.50
2022-08-07T02:30:55.302Z,67.69
2022-08-07T02:33:42.074Z,67.90
2022-08-07T02:36:30.820Z,67.83
2022-08-07T02:39:09.508Z,67.99
2022-08-07T02:41:54.246Z,68.39
2022-08-07T02:44:34.397Z,68.26
2022-08-07T02:47:05.652Z,67.95
2022-08-07T02:49:57.529Z,68.11
2022-08-07T02:52:54.749Z,68.47
2022-08-07T02:56:03.291Z,68.83
2022-08-07T02:58:27.290Z,69.04
2022-08-07T03:00:59.361Z,69.28
2022-08-07T03:03:49.459Z,69.46
2022-08-07T03:06:26.247Z,69.29
2022-08-07T03:09:07.498Z,69.44
2022-08-07T03:11:52.416Z,69.49
2022-08-07T03:14:28.241Z,69.87
2022-08-07T03:16:57.685Z,69.96
2022-08-07T03:19:28.991Z,70.15
2022-08-07T03:21:58.941Z,70.37
2022-08-07T03:24:28.225Z,70.70
2022-08-07T03:27:03.146Z,70.86
2022-08-07T03:29:52.843Z,70.92
2022-08-07T03:32:33.314Z,71.11
2022-08-07T03:35:17.905Z,71.60
2022-08-07T03:37:55.164Z,71.69
2022-08-07T03:40:30.756Z,71.54
2022-08-07T03:43:05.409Z,71.46
2022-08-07T03:45:48.457Z,71.43
2022-08-07T03:48:17.701Z,71.53
2022-08-07T03:50:56.262Z,71.66
2022-08-07T03:54:01.658Z,72.01
2022-08-07T03:56:33.204Z,71.70
2022-08-07T03:59:10.157Z,71.86
2022-08-07T04:01:46.052Z,72.04
2022-08-07T04:04:19.443Z,71.82
2022-08-07T04:06:54.550Z,71.69
2022-08-07T04:09:25.141Z,71.80
2022-08-07T04:12:24.512Z,71.56
2022-08-07T04:14:57.982Z,71.73
2022-08-07T04:18:57.970Z,71.87
2022-08-07T04:20:17.084Z,71.85
2022-08-07T04:22:53.418Z,72.09
2022-08-07T04:25:31.778Z,72.22
2022-08-07T04:28:10.327Z,72.32
2022-08-07T04:30:55.434Z,72.80
2022-08-07T04:33:29.734Z,72.57
2022-08-07T04:35:59.322Z,72.61
2022-08-07T04:38:29.418Z,72.55
2022-08-07T04:40:58.057Z,72.64
2022-08-07T04:44:13.142Z,72.63
2022-08-07T04:46:42.817Z,72.32
2022-08-07T04:49:58.199Z,71.96
2022-08-07T04:52:53.650Z,72.26
2022-08-07T04:58:15.788Z,72.46
2022-08-07T05:00:08.059Z,72.82
2022-08-07T05:02:16.889Z,72.57
2022-08-07T05:05:52.069Z,72.65
2022-08-07T05:08:59.260Z,72.96
2022-08-07T05:11:57.171Z,72.73
2022-08-07T05:14:55.214Z,72.86
2022-08-07T05:18:00.747Z,73.25
2022-08-07T05:20:13.113Z,73.40
2022-08-07T05:22:46.496Z,73.35
2022-08-07T05:25:25.936Z,73.22
2022-08-07T05:28:20.456Z,73.15
2022-08-07T05:30:54.402Z,73.12
2022-08-07T05:33:23.664Z,72.90
2022-08-07T05:35:55.597Z,73.22
2022-08-07T05:39:01.418Z,73.38
2022-08-07T05:41:16.653Z,72.81
2022-08-07T05:44:08.103Z,73.08
2022-08-07T05:46:43.011Z,73.13
2022-08-07T05:49:13.157Z,73.29
2022-08-07T05:51:46.359Z,73.20
2022-08-07T05:54:44.148Z,73.13
2022-08-07T05:57:08.137Z,72.73
2022-08-07T05:59:55.888Z,72.11
2022-08-07T06:02:31.191Z,71.45
2022-08-07T06:05:07.672Z,70.94
2022-08-07T06:08:13.648Z,70.16
2022-08-07T06:10:29.324Z,70.06
2022-08-07T06:12:57.773Z,69.54
2022-08-07T06:15:39.116Z,69.28
2022-08-07T06:18:13.883Z,68.98
2022-08-07T06:20:49.923Z,68.81
2022-08-07T06:23:45.858Z,68.82
2022-08-07T06:26:12.453Z,68.95
2022-08-07T06:28:56.923Z,68.88
2022-08-07T06:31:38.503Z,68.80
2022-08-07T06:34:15.334Z,68.30
2022-08-07T06:36:48.287Z,68.26
2022-08-07T06:40:16.311Z,68.14
2022-08-07T06:42:37.286Z,67.98
2022-08-07T06:45:37.791Z,67.75
2022-08-07T06:48:06.663Z,67.76
2022-08-07T06:50:47.951Z,67.64
2022-08-07T06:55:29.757Z,67.47
2022-08-07T06:56:15.312Z,67.37
2022-08-07T07:00:11.457Z,66.88
2022-08-07T07:01:43.679Z,66.62
2022-08-07T07:04:32.285Z,66.71
2022-08-07T07:07:19.058Z,66.46
2022-08-07T07:09:55.393Z,65.98
2022-08-07T07:12:48.887Z,65.67
2022-08-07T07:15:32.498Z,65.58
2022-08-07T07:18:48.119Z,65.03
2022-08-07T07:21:27.351Z,64.83
2022-08-07T07:24:16.751Z,64.39
2022-08-07T07:26:52.536Z,64.04
2022-08-07T07:29:40.246Z,64.12
2022-08-07T07:32:17.406Z,63.73
2022-08-07T07:34:55.095Z,63.48
2022-08-07T07:37:44.455Z,63.16
2022-08-07T07:40:26.165Z,62.95
2022-08-07T07:42:57.792Z,61.87
2022-08-07T07:46:38.539Z,61.74
2022-08-07T07:48:36.005Z,60.71
2022-08-07T07:51:07.996Z,60.76
2022-08-07T07:53:51.745Z,60.62
2022-08-07T07:56:30.005Z,60.09
2022-08-07T07:59:06.207Z,60.16
2022-08-07T08:02:03.775Z,59.38
2022-08-07T08:04:28.577Z,58.83
2022-08-07T08:07:02.834Z,58.50
2022-08-07T08:09:52.476Z,58.29
2022-08-07T08:12:51.270Z,57.99
2022-08-07T08:15:14.732Z,57.28
2022-08-07T08:17:57.334Z,57.74
2022-08-07T08:20:33.076Z,58.29
2022-08-07T08:23:26.575Z,56.94
2022-08-07T08:26:27.011Z,55.87
2022-08-07T08:28:58.417Z,55.06
2022-08-07T08:31:58.705Z,55.23
2022-08-07T08:34:34.929Z,55.50
2022-08-07T08:37:10.007Z,53.96
2022-08-07T08:39:58.403Z,53.26
2022-08-07T08:42:45.146Z,52.24
2022-08-07T08:45:41.840Z,53.28
2022-08-07T08:48:38.524Z,53.32
2022-08-07T08:51:49.677Z,52.15
2022-08-07T08:54:41.551Z,52.66
2022-08-07T08:57:35.031Z,52.49
2022-08-07T09:00:15.267Z,51.83
2022-08-07T09:03:02.046Z,51.95
2022-08-07T09:05:51.790Z,51.62
2022-08-07T09:08:41.875Z,50.38
2022-08-07T09:11:24.868Z,50.25
2022-08-07T09:14:40.648Z,51.07
2022-08-07T09:18:07.157Z,50.54
2022-08-07T09:21:57.940Z,50.03
2022-08-07T09:24:58.458Z,49.65
2022-08-07T09:30:04.426Z,49.28
2022-08-07T09:31:19.618Z,49.75
2022-08-07T09:34:09.058Z,49.84
2022-08-07T09:37:00.587Z,50.54
2022-08-07T09:39:54.148Z,49.98
2022-08-07T09:43:14.522Z,48.68
2022-08-07T09:47:52.607Z,48.24
2022-08-07T09:50:19.121Z,48.38
2022-08-07T09:52:53.934Z,48.31
2022-08-07T09:56:03.356Z,48.75
2022-08-07T09:59:14.092Z,48.17
2022-08-07T10:02:16.753Z,48.48
2022-08-07T10:04:55.093Z,47.96
2022-08-07T10:08:06.011Z,47.95
2022-08-07T10:11:59.801Z,47.56
2022-08-07T10:14:11.388Z,47.97
2022-08-07T10:17:14.310Z,46.91
2022-08-07T10:20:34.538Z,46.69
2022-08-07T10:24:06.371Z,46.77
2022-08-07T10:27:06.709Z,47.31
2022-08-07T10:30:06.660Z,45.31
2022-08-07T10:34:04.096Z,45.18
2022-08-07T10:37:09.287Z,45.78
2022-08-07T10:40:20.961Z,45.52
2022-08-07T10:43:13.421Z,45.49
2022-08-07T10:45:58.289Z,45.22
2022-08-07T10:49:14.307Z,44.58
2022-08-07T10:52:13.334Z,44.59
2022-08-07T10:55:01.293Z,44.94
2022-08-07T10:58:04.257Z,45.07
2022-08-07T11:00:50.650Z,45.10
2022-08-07T11:03:42.933Z,44.50
2022-08-07T11:06:29.618Z,45.06
2022-08-07T11:09:11.472Z,45.12
2022-08-07T11:12:19.101Z,43.79
2022-08-07T11:15:14.449Z,43.70
2022-08-07T11:18:04.580Z,43.70
2022-08-07T11:20:59.953Z,43.77
2022-08-07T11:23:59.298Z,43.26
2022-08-07T11:27:17.533Z,42.96
2022-08-07T11:30:18.470Z,42.42
2022-08-07T11:33:01.211Z,42.19
2022-08-07T11:35:58.909Z,42.24
2022-08-07T11:38:43.700Z,41.72
2022-08-07T11:41:28.272Z,41.54
2022-08-07T11:44:36.642Z,41.02
2022-08-07T11:47:55.903Z,39.81
2022-08-07T11:50:57.381Z,39.74
2022-08-07T11:54:00.927Z,39.69
2022-08-07T11:56:45.941Z,38.70
2022-08-07T12:00:11.592Z,39.08
2022-08-07T12:03:41.348Z,39.17
2022-08-07T12:06:56.253Z,38.68
2022-08-07T12:09:42.717Z,39.20
2022-08-07T12:12:25.794Z,38.83
2022-08-07T12:15:05.419Z,38.18
2022-08-07T12:18:22.338Z,38.31
2022-08-07T12:21:21.001Z,37.18
2022-08-07T12:24:37.475Z,38.09
2022-08-07T12:27:18.553Z,38.37
2022-08-07T12:30:08.883Z,38.45
2022-08-07T12:32:58.470Z,38.00
2022-08-07T12:35:31.065Z,38.30
2022-08-07T12:38:10.637Z,38.16
2022-08-07T12:40:47.360Z,38.28
2022-08-07T12:44:02.315Z,37.81
2022-08-07T12:46:32.429Z,37.28
2022-08-07T12:49:40.138Z,38.13
2022-08-07T12:52:14.706Z,37.45
2022-08-07T12:55:17.929Z,37.19
2022-08-07T12:58:00.226Z,37.46
2022-08-07T13:01:04.713Z,37.23
2022-08-07T13:04:10.337Z,36.97
2022-08-07T13:07:02.462Z,37.30
2022-08-07T13:10:21.693Z,36.73
2022-08-07T13:12:52.477Z,36.72
2022-08-07T13:15:39.686Z,37.26
2022-08-07T13:18:28.334Z,37.11
2022-08-07T13:21:14.502Z,36.66
2022-08-07T13:24:23.566Z,36.89
2022-08-07T13:27:13.406Z,36.29
2022-08-07T13:29:56.145Z,36.35
2022-08-07T13:32:38.583Z,36.41
2022-08-07T13:36:00.467Z,37.09
2022-08-07T13:38:45.210Z,36.17
2022-08-07T13:41:31.917Z,35.31
2022-08-07T13:44:10.460Z,36.26
2022-08-07T13:46:48.968Z,36.11
2022-08-07T13:50:33.937Z,35.61
2022-08-07T13:52:33.552Z,36.17
2022-08-07T13:55:06.334Z,36.37
2022-08-07T13:57:38.805Z,36.40
2022-08-07T14:00:39.481Z,36.12
2022-08-07T14:03:09.012Z,36.22
2022-08-07T14:05:44.426Z,36.08
2022-08-07T14:08:20.292Z,36.04
2022-08-07T14:11:14.547Z,35.52
2022-08-07T14:13:45.062Z,35.47
2022-08-07T14:16:17.839Z,35.86
2022-08-07T14:18:57.232Z,35.31
2022-08-07T14:22:02.968Z,35.54
2022-08-07T14:24:42.031Z,35.43
2022-08-07T14:28:09.372Z,34.90
2022-08-07T14:30:11.394Z,35.31
2022-08-07T14:33:04.637Z,35.06
2022-08-07T14:35:58.609Z,35.44
2022-08-07T14:38:33.431Z,35.35
2022-08-07T14:41:14.634Z,35.88
2022-08-07T14:43:58.901Z,34.84
2022-08-07T14:46:38.119Z,34.88
2022-08-07T14:49:57.513Z,34.37
2022-08-07T14:52:25.827Z,35.11
2022-08-07T14:54:59.356Z,34.84
2022-08-07T14:57:58.739Z,34.67
2022-08-07T15:00:30.240Z,34.89
2022-08-07T15:03:15.672Z,34.89
2022-08-07T15:05:54.644Z,34.21
2022-08-07T15:08:50.379Z,34.31
2022-08-07T15:11:54.371Z,33.91
2022-08-07T15:14:23.246Z,34.38
2022-08-07T15:17:02.591Z,34.21
2022-08-07T15:22:33.443Z,34.50
2022-08-07T15:25:17.227Z,33.81
2022-08-07T15:28:33.153Z,34.24
2022-08-07T15:37:02.691Z,32.95
2022-08-07T15:39:17.312Z,33.07
2022-08-07T15:42:42.348Z,33.01
2022-08-07T15:44:52.689Z,33.31
2022-08-07T15:48:00.699Z,33.67
2022-08-07T15:50:37.944Z,32.99
2022-08-07T15:53:13.894Z,33.06
2022-08-07T15:55:53.622Z,32.55
2022-08-07T15:58:52.320Z,32.34
2022-08-07T16:01:39.755Z,31.54
2022-08-07T16:04:15.255Z,31.65
2022-08-07T16:06:51.621Z,30.88
2022-08-07T16:09:41.938Z,31.64
2022-08-07T16:12:30.609Z,30.62
2022-08-07T16:15:54.601Z,30.35
2022-08-07T16:18:51.720Z,31.04
2022-08-07T16:22:01.226Z,30.72
2022-08-07T16:24:40.781Z,30.81
2022-08-07T16:27:40.723Z,31.05
2022-08-07T16:30:31.963Z,31.87
2022-08-07T16:34:02.404Z,31.41
2022-08-07T16:36:19.662Z,31.39
2022-08-07T16:39:33.775Z,31.56
2022-08-07T16:42:55.098Z,31.14
2022-08-07T16:50:27.507Z,31.13
2022-08-07T16:54:01.674Z,31.74
2022-08-07T16:56:20.616Z,31.42
2022-08-07T16:59:14.770Z,31.14
2022-08-07T17:02:03.185Z,31.82
2022-08-07T17:04:51.186Z,31.38
2022-08-07T17:07:55.230Z,31.27
2022-08-07T17:10:54.653Z,31.83
2022-08-07T17:14:17.844Z,32.13
2022-08-07T17:16:56.847Z,32.32
2022-08-07T17:20:01.548Z,31.63
2022-08-07T17:22:39.210Z,32.08
2022-08-07T17:25:20.085Z,31.52
2022-08-07T17:28:20.013Z,32.50
2022-08-07T17:31:16.127Z,32.26
2022-08-07T17:34:34.353Z,32.33
2022-08-07T17:38:06.643Z,32.26
2022-08-07T17:40:14.486Z,32.31
2022-08-07T17:43:03.674Z,32.39
2022-08-07T17:46:11.838Z,32.56
2022-08-07T17:49:01.701Z,32.56
2022-08-07T17:52:01.095Z,32.76
2022-08-07T17:54:55.506Z,32.85
2022-08-07T17:58:02.075Z,32.57
2022-08-07T18:00:48.693Z,32.81
2022-08-07T18:04:04.554Z,33.15
2022-08-07T18:06:37.130Z,33.54
2022-08-07T18:09:09.667Z,33.54
2022-08-07T18:12:30.319Z,33.90
2022-08-07T18:15:23.260Z,33.94
2022-08-07T18:18:45.378Z,34.18
2022-08-07T18:21:55.268Z,34.37
2022-08-07T18:24:44.874Z,34.62
2022-08-07T18:28:33.952Z,34.06
2022-08-07T18:31:23.881Z,33.76
2022-08-07T18:34:37.562Z,34.00
2022-08-07T18:38:56.013Z,34.13
2022-08-07T18:40:50.218Z,34.10
2022-08-07T18:43:49.616Z,34.02
2022-08-07T18:46:32.378Z,34.49
2022-08-07T18:50:30.517Z,34.17
2022-08-07T18:53:04.829Z,34.48
2022-08-07T18:56:31.728Z,34.45
2022-08-07T18:59:58.458Z,34.64
2022-08-07T19:02:55.899Z,34.80
2022-08-07T19:06:01.912Z,35.01
2022-08-07T19:08:54.711Z,35.20
2022-08-07T19:11:36.243Z,35.50
2022-08-07T19:14:23.609Z,35.92
2022-08-07T19:17:04.930Z,36.20
2022-08-07T19:20:07.523Z,36.17
2022-08-07T19:23:56.972Z,36.35
2022-08-07T19:26:23.846Z,37.05
2022-08-07T19:31:01.413Z,37.34
2022-08-07T19:32:08.008Z,37.50
2022-08-07T19:34:57.160Z,38.19
2022-08-07T19:37:55.342Z,38.90
2022-08-07T19:40:31.667Z,39.75
2022-08-07T19:43:43.548Z,40.19
2022-08-07T19:46:10.167Z,40.74
2022-08-07T19:48:54.005Z,41.38
2022-08-07T19:51:52.812Z,41.96
2022-08-07T19:54:34.344Z,42.55
2022-08-07T19:58:02.405Z,42.72
2022-08-07T20:00:29.061Z,43.03
2022-08-07T20:03:33.775Z,43.33
2022-08-07T20:06:03.846Z,43.70
2022-08-07T20:08:40.987Z,43.90
2022-08-07T20:11:34.036Z,44.21
2022-08-07T20:14:20.835Z,44.55
2022-08-07T20:16:56.385Z,45.07
2022-08-07T20:19:48.074Z,45.23
2022-08-07T20:22:28.999Z,45.47
2022-08-07T20:25:06.253Z,45.77
2022-08-07T20:27:46.087Z,45.92
2022-08-07T20:30:22.488Z,46.44
2022-08-07T20:32:55.786Z,46.84
2022-08-07T20:35:34.366Z,46.92
2022-08-07T20:38:06.719Z,47.43
2022-08-07T20:40:51.516Z,47.82
2022-08-07T20:43:26.622Z,48.18
2022-08-07T20:46:27.397Z,48.70
2022-08-07T20:49:55.146Z,49.01
2022-08-07T20:51:40.646Z,48.97
2022-08-07T20:54:30.153Z,48.05
2022-08-07T20:57:08.389Z,47.54
2022-08-07T21:00:07.317Z,47.29
2022-08-07T21:02:53.930Z,47.77
2022-08-07T21:05:51.442Z,48.06
2022-08-07T21:08:37.579Z,48.00
2022-08-07T21:11:14.407Z,47.66
2022-08-07T21:14:29.341Z,47.86
2022-08-07T21:18:00.706Z,47.75
2022-08-07T21:20:00.663Z,47.65
2022-08-07T21:22:44.731Z,47.63
2022-08-07T21:25:59.017Z,47.12
2022-08-07T21:28:51.063Z,46.89
2022-08-07T21:31:49.987Z,46.82
2022-08-07T21:34:31.893Z,46.86
2022-08-07T21:37:09.566Z,46.67
2022-08-07T21:39:56.475Z,46.53
2022-08-07T21:42:46.111Z,46.55
2022-08-07T21:46:07.763Z,46.81
2022-08-07T21:48:34.458Z,46.52
2022-08-07T21:51:27.496Z,46.56
2022-08-07T21:54:05.370Z,46.60
2022-08-07T21:57:03.097Z,46.71
2022-08-07T22:00:06.265Z,46.81
2022-08-07T22:02:45.964Z,47.03
2022-08-07T22:05:21.768Z,47.08
2022-08-07T22:08:10.337Z,47.16
2022-08-07T22:10:42.347Z,47.25
2022-08-07T22:13:14.394Z,47.35
2022-08-07T22:16:44.520Z,47.36
2022-08-07T22:19:29.253Z,47.41
2022-08-07T22:22:44.711Z,47.48
2022-08-07T22:25:26.541Z,47.77
2022-08-07T22:28:31.439Z,47.91
2022-08-07T22:32:06.468Z,48.20
2022-08-07T22:34:55.422Z,48.53
2022-08-07T22:38:02.687Z,48.78
2022-08-07T22:40:57.006Z,49.01
2022-08-07T22:43:34.055Z,49.53
2022-08-07T22:47:02.151Z,49.69
2022-08-07T22:50:01.206Z,49.97
2022-08-07T22:54:05.189Z,50.39
2022-08-07T22:56:33.181Z,50.86
2022-08-07T22:59:28.534Z,51.27
2022-08-07T23:02:24.652Z,51.56
2022-08-07T23:06:07.148Z,51.72
2022-08-07T23:08:47.951Z,51.94
2022-08-07T23:11:59.376Z,52.16
2022-08-07T23:14:48.277Z,52.19
2022-08-07T23:17:32.928Z,52.42
2022-08-07T23:20:40.768Z,52.56
2022-08-07T23:24:06.782Z,52.78
2022-08-07T23:27:11.135Z,52.87
2022-08-07T23:30:37.094Z,53.18
2022-08-07T23:34:35.499Z,53.31
2022-08-07T23:36:22.936Z,53.46
2022-08-07T23:39:14.064Z,53.63
2022-08-07T23:42:08.203Z,53.89
2022-08-07T23:45:07.377Z,54.33
2022-08-07T23:48:10.819Z,54.54
2022-08-07T23:53:01.378Z,55.17
2022-08-07T23:55:02.741Z,55.69
2022-08-07T23:57:52.700Z,56.29
